createdAt,value
2023-02-17T00:00:36.428Z,48.40
2023-02-17T00:03:03.055Z,42.90
2023-02-17T00:05:29.695Z,42.37
2023-02-17T00:07:56.504Z,45.47
2023-02-17T00:10:23.214Z,42.43
2023-02-17T00:12:49.886Z,47.13
2023-02-17T00:15:16.550Z,44.73
2023-02-17T00:17:43.289Z,44.20
2023-02-17T00:20:10.449Z,43.30
2023-02-17T00:22:37.076Z,46.47
2023-02-17T00:25:04.001Z,44.67
2023-02-17T00:27:30.759Z,49.10
2023-02-17T00:29:57.427Z,48.50
2023-02-17T00:32:24.147Z,41.20
2023-02-17T00:34:52.571Z,45.63
2023-02-17T00:37:19.197Z,44.00
2023-02-17T00:39:45.918Z,45.80
2023-02-17T00:42:12.542Z,42.63
2023-02-17T00:44:39.274Z,47.50
2023-02-17T00:47:05.925Z,43.97
2023-02-17T00:49:32.676Z,47.87
2023-02-17T00:52:03.458Z,51.83
2023-02-17T00:54:30.191Z,47.90
2023-02-17T00:56:57.160Z,46.67
2023-02-17T00:59:23.820Z,47.03
2023-02-17T01:01:50.538Z,42.50
2023-02-17T01:04:17.223Z,46.90
2023-02-17T01:06:43.866Z,45.60
2023-02-17T01:09:14.043Z,46.17
2023-02-17T01:11:41.424Z,43.30
2023-02-17T01:14:08.490Z,43.70
2023-02-17T01:16:39.866Z,48.93
2023-02-17T01:19:09.271Z,50.43
2023-02-17T01:21:36.591Z,41.03
2023-02-17T01:24:05.772Z,45.80
2023-02-17T01:26:33.775Z,48.07
2023-02-17T01:29:01.393Z,53.53
2023-02-17T01:31:28.255Z,62.90
2023-02-17T01:33:57.894Z,47.83
2023-02-17T01:36:25.202Z,52.63
2023-02-17T01:38:52.204Z,49.00
2023-02-17T01:41:22.510Z,47.67
2023-02-17T01:44:06.027Z,52.63
2023-02-17T01:46:34.112Z,48.63
2023-02-17T01:49:03.378Z,48.10
2023-02-17T01:51:35.725Z,53.30
2023-02-17T01:54:08.094Z,49.93
2023-02-17T01:56:38.848Z,55.40
2023-02-17T01:59:12.109Z,51.53
2023-02-17T02:01:40.156Z,46.63
2023-02-17T02:04:08.004Z,42.47
2023-02-17T02:06:38.195Z,49.80
2023-02-17T02:09:13.246Z,53.20
2023-02-17T02:11:39.880Z,53.07
2023-02-17T02:14:08.085Z,51.77
2023-02-17T02:17:07.024Z,50.80
2023-02-17T02:19:53.996Z,50.83
2023-02-17T02:22:40.704Z,50.73
2023-02-17T02:25:26.066Z,45.37
2023-02-17T02:27:57.124Z,42.07
2023-02-17T02:30:45.205Z,45.50
2023-02-17T02:33:43.723Z,43.53
2023-02-17T02:36:29.692Z,46.43
2023-02-17T02:39:08.974Z,45.10
2023-02-17T02:41:45.855Z,41.57
2023-02-17T02:44:15.764Z,42.17
2023-02-17T02:46:42.504Z,52.67
2023-02-17T02:49:09.838Z,51.43
2023-02-17T02:51:49.517Z,44.83
2023-02-17T02:54:22.768Z,45.50
2023-02-17T02:57:01.523Z,45.63
2023-02-17T02:59:47.309Z,42.50
2023-02-17T03:02:27.518Z,47.13
2023-02-17T03:05:13.196Z,47.30
2023-02-17T03:08:08.172Z,47.57
2023-02-17T03:10:35.100Z,46.40
2023-02-17T03:13:03.259Z,54.30
2023-02-17T03:15:33.593Z,46.27
2023-02-17T03:18:01.438Z,45.13
2023-02-17T03:20:32.869Z,43.87
2023-02-17T03:23:00.118Z,45.40
2023-02-17T03:25:26.772Z,41.87
2023-02-17T03:27:53.473Z,45.37
2023-02-17T03:30:20.741Z,47.60
2023-02-17T03:32:47.427Z,45.90
2023-02-17T03:35:15.062Z,50.53
2023-02-17T03:37:41.739Z,48.27
2023-02-17T03:40:09.793Z,46.40
2023-02-17T03:42:37.070Z,38.93
2023-02-17T03:45:04.387Z,35.00
2023-02-17T03:47:31.775Z,28.43
2023-02-17T03:49:58.418Z,30.20
2023-02-17T03:52:25.078Z,22.63
2023-02-17T03:54:52.599Z,20.83
2023-02-17T03:57:19.705Z,21.40
2023-02-17T03:59:46.455Z,28.50
2023-02-17T04:02:13.304Z,18.13
2023-02-17T04:04:40.047Z,24.10
2023-02-17T04:07:06.762Z,12.93
2023-02-17T04:09:33.441Z,14.53
2023-02-17T04:12:00.110Z,22.43
2023-02-17T04:14:26.784Z,16.47
2023-02-17T04:16:53.652Z,13.60
2023-02-17T04:19:21.303Z,11.30
2023-02-17T04:21:48.211Z,12.17
2023-02-17T04:24:14.833Z,11.43
2023-02-17T04:26:41.540Z,13.90
2023-02-17T04:29:08.162Z,14.40
2023-02-17T04:31:34.909Z,16.03
2023-02-17T04:34:01.904Z,18.93
2023-02-17T04:36:28.945Z,17.53
2023-02-17T04:38:55.570Z,12.70
2023-02-17T04:41:22.219Z,11.43
2023-02-17T04:43:48.899Z,12.33
2023-02-17T04:46:15.685Z,14.70
2023-02-17T04:48:42.562Z,12.97
2023-02-17T04:51:09.292Z,13.03
2023-02-17T04:53:36.080Z,10.97
2023-02-17T04:56:02.908Z,11.57
2023-02-17T04:58:29.579Z,12.93
2023-02-17T05:00:58.779Z,17.67
2023-02-17T05:03:25.423Z,13.43
2023-02-17T05:05:52.110Z,16.10
2023-02-17T05:08:18.824Z,12.60
2023-02-17T05:10:45.488Z,9.00
2023-02-17T05:13:12.142Z,18.53
2023-02-17T05:15:39.348Z,9.03
2023-02-17T05:18:06.559Z,12.73
2023-02-17T05:20:33.214Z,9.77
2023-02-17T05:22:59.865Z,13.93
2023-02-17T05:25:26.548Z,13.10
2023-02-17T05:27:53.378Z,13.40
2023-02-17T05:30:20.434Z,13.13
2023-02-17T05:32:47.097Z,15.00
2023-02-17T05:35:13.717Z,21.93
2023-02-17T05:37:40.452Z,14.17
2023-02-17T05:40:07.816Z,17.03
2023-02-17T05:42:34.797Z,15.70
2023-02-17T05:45:01.545Z,17.97
2023-02-17T05:47:28.303Z,19.93
2023-02-17T05:49:55.010Z,28.77
2023-02-17T05:52:21.795Z,18.77
2023-02-17T05:54:48.426Z,14.00
2023-02-17T05:57:15.126Z,17.30
2023-02-17T05:59:41.839Z,10.00
2023-02-17T06:02:08.471Z,11.33
2023-02-17T06:04:35.246Z,8.70
2023-02-17T06:07:01.977Z,16.03
2023-02-17T06:09:28.672Z,14.03
2023-02-17T06:11:55.309Z,12.40
2023-02-17T06:14:22.242Z,8.40
2023-02-17T06:16:48.968Z,12.10
2023-02-17T06:19:15.683Z,12.33
2023-02-17T06:21:42.459Z,12.30
2023-02-17T06:24:09.860Z,13.73
2023-02-17T06:26:36.519Z,9.97
2023-02-17T06:29:03.454Z,7.67
2023-02-17T06:31:30.252Z,9.33
2023-02-17T06:33:56.958Z,12.83
2023-02-17T06:36:23.655Z,12.03
2023-02-17T06:38:50.573Z,9.10
2023-02-17T06:41:17.238Z,9.63
2023-02-17T06:43:44.036Z,11.47
2023-02-17T06:46:10.856Z,8.83
2023-02-17T06:48:37.656Z,9.40
2023-02-17T06:51:04.571Z,9.30
2023-02-17T06:53:31.324Z,12.27
2023-02-17T06:55:58.013Z,12.50
2023-02-17T06:58:24.796Z,11.00
2023-02-17T07:00:51.713Z,9.93
2023-02-17T07:03:18.361Z,11.07
2023-02-17T07:05:45.004Z,8.10
2023-02-17T07:08:11.737Z,10.00
2023-02-17T07:10:38.458Z,7.30
2023-02-17T07:13:05.194Z,11.23
2023-02-17T07:15:31.961Z,6.90
2023-02-17T07:17:58.978Z,8.20
2023-02-17T07:20:25.972Z,8.50
2023-02-17T07:22:52.655Z,6.63
2023-02-17T07:25:19.347Z,9.40
2023-02-17T07:27:46.373Z,7.50
2023-02-17T07:30:13.481Z,8.03
2023-02-17T07:32:40.157Z,11.33
2023-02-17T07:35:07.289Z,6.57
2023-02-17T07:37:34.155Z,7.47
2023-02-17T07:40:01.050Z,8.30
2023-02-17T07:42:28.308Z,5.40
2023-02-17T07:44:54.991Z,17.03
2023-02-17T07:47:21.709Z,10.87
2023-02-17T07:49:48.348Z,5.93
2023-02-17T07:52:18.255Z,15.43
2023-02-17T07:54:45.237Z,12.70
2023-02-17T07:57:12.266Z,5.57
2023-02-17T07:59:39.111Z,8.23
2023-02-17T08:02:05.842Z,6.53
2023-02-17T08:04:33.013Z,5.97
2023-02-17T08:06:59.705Z,7.63
2023-02-17T08:09:52.719Z,12.47
2023-02-17T08:12:39.527Z,7.87
2023-02-17T08:15:07.879Z,9.03
2023-02-17T08:17:35.009Z,6.50
2023-02-17T08:20:08.370Z,8.83
2023-02-17T08:22:36.299Z,5.43
2023-02-17T08:25:03.082Z,6.37
2023-02-17T08:27:29.752Z,5.87
2023-02-17T08:29:56.551Z,6.07
2023-02-17T08:32:23.896Z,6.80
2023-02-17T08:34:50.924Z,4.90
2023-02-17T08:37:17.635Z,5.43
2023-02-17T08:39:44.288Z,5.33
2023-02-17T08:42:12.164Z,6.60
2023-02-17T08:44:39.309Z,8.90
2023-02-17T08:47:07.074Z,5.57
2023-02-17T08:49:33.823Z,6.23
2023-02-17T08:52:00.563Z,8.93
2023-02-17T08:54:27.321Z,5.73
2023-02-17T08:56:54.210Z,6.53
2023-02-17T08:59:21.014Z,5.03
2023-02-17T09:01:47.846Z,4.83
2023-02-17T09:04:15.456Z,5.30
2023-02-17T09:06:56.302Z,4.30
2023-02-17T09:09:28.206Z,4.00
2023-02-17T09:11:57.083Z,4.70
2023-02-17T09:14:24.093Z,3.53
2023-02-17T09:16:51.813Z,4.33
2023-02-17T09:19:19.021Z,3.40
2023-02-17T09:21:46.080Z,4.30
2023-02-17T09:24:12.808Z,4.07
2023-02-17T09:26:39.550Z,6.40
2023-02-17T09:29:06.943Z,3.20
2023-02-17T09:31:35.457Z,3.07
2023-02-17T09:34:04.240Z,2.70
2023-02-17T09:36:34.294Z,2.67
2023-02-17T09:39:01.708Z,4.83
2023-02-17T09:41:34.425Z,3.67
2023-02-17T09:44:02.152Z,2.77
2023-02-17T09:47:00.511Z,3.20
2023-02-17T09:49:38.182Z,4.30
2023-02-17T09:52:10.351Z,2.97
2023-02-17T09:54:57.278Z,3.90
2023-02-17T09:57:28.043Z,3.43
2023-02-17T10:00:17.567Z,2.50
2023-02-17T10:02:56.093Z,2.60
2023-02-17T10:05:28.152Z,2.20
2023-02-17T10:08:01.994Z,2.43
2023-02-17T10:10:49.652Z,4.67
2023-02-17T10:13:20.074Z,2.40
2023-02-17T10:15:51.675Z,3.07
2023-02-17T10:18:31.116Z,2.00
2023-02-17T10:21:07.629Z,2.87
2023-02-17T10:23:37.829Z,1.90
2023-02-17T10:26:22.589Z,3.93
2023-02-17T10:28:51.062Z,2.70
2023-02-17T10:31:38.987Z,3.40
2023-02-17T10:34:31.178Z,2.23
2023-02-17T10:37:18.733Z,3.77
2023-02-17T10:39:54.997Z,2.50
2023-02-17T10:42:30.181Z,2.33
2023-02-17T10:45:11.579Z,2.53
2023-02-17T10:47:40.071Z,2.43
2023-02-17T10:50:17.080Z,3.37
2023-02-17T10:52:43.894Z,6.60
2023-02-17T10:55:37.032Z,2.60
2023-02-17T10:58:19.327Z,1.97
2023-02-17T11:00:52.344Z,3.00
2023-02-17T11:03:21.720Z,5.37
2023-02-17T11:06:04.504Z,1.90
2023-02-17T11:08:37.256Z,1.87
2023-02-17T11:11:07.796Z,1.67
2023-02-17T11:13:51.367Z,2.23
2023-02-17T11:16:43.703Z,1.50
2023-02-17T11:19:35.320Z,3.20
2023-02-17T11:22:04.533Z,2.20
2023-02-17T11:24:34.102Z,1.73
2023-02-17T11:27:11.593Z,3.03
2023-02-17T11:29:38.304Z,2.13
2023-02-17T11:32:08.984Z,6.20
2023-02-17T11:34:38.480Z,1.63
2023-02-17T11:37:14.236Z,1.87
2023-02-17T11:39:48.989Z,2.90
2023-02-17T11:42:23.088Z,2.23
2023-02-17T11:44:50.310Z,3.93
2023-02-17T11:47:28.943Z,5.03
2023-02-17T11:50:24.055Z,3.70
2023-02-17T11:53:04.741Z,4.73
2023-02-17T11:56:22.429Z,4.97
2023-02-17T11:59:28.202Z,3.83
2023-02-17T12:02:25.024Z,2.50
2023-02-17T12:05:04.652Z,1.77
2023-02-17T12:07:59.776Z,2.13
2023-02-17T12:10:26.356Z,2.50
2023-02-17T12:13:23.795Z,2.80
2023-02-17T12:16:14.797Z,2.30
2023-02-17T12:18:41.519Z,2.90
2023-02-17T12:21:39.084Z,2.30
2023-02-17T12:24:27.069Z,2.30
2023-02-17T12:27:04.413Z,2.80
2023-02-17T12:30:04.567Z,2.53
2023-02-17T12:32:41.089Z,2.70
2023-02-17T12:35:32.471Z,2.20
2023-02-17T12:38:04.119Z,4.63
2023-02-17T12:40:38.877Z,3.20
2023-02-17T12:43:34.544Z,1.80
2023-02-17T12:46:06.189Z,2.10
2023-02-17T12:48:53.370Z,2.50
2023-02-17T12:51:31.866Z,2.00
2023-02-17T12:54:25.766Z,2.50
2023-02-17T12:57:04.587Z,2.03
2023-02-17T12:59:39.831Z,2.10
2023-02-17T13:02:22.453Z,2.77
2023-02-17T13:05:05.874Z,2.60
2023-02-17T13:07:44.756Z,2.23
2023-02-17T13:10:31.613Z,1.93
2023-02-17T13:13:02.705Z,2.13
2023-02-17T13:15:38.268Z,2.30
2023-02-17T13:18:10.938Z,4.30
2023-02-17T13:20:45.592Z,2.57
2023-02-17T13:23:14.910Z,2.07
2023-02-17T13:25:41.791Z,1.50
2023-02-17T13:28:33.274Z,2.60
2023-02-17T13:31:28.466Z,2.10
2023-02-17T13:33:59.600Z,2.30
2023-02-17T13:36:29.004Z,1.90
2023-02-17T13:39:03.115Z,2.17
2023-02-17T13:41:47.185Z,3.50
2023-02-17T13:44:22.876Z,3.13
2023-02-17T13:46:50.519Z,2.00
2023-02-17T13:49:23.214Z,1.30
2023-02-17T13:51:49.917Z,2.00
2023-02-17T13:54:21.377Z,1.60
2023-02-17T13:56:52.888Z,1.80
2023-02-17T13:59:26.077Z,6.30
2023-02-17T14:01:54.818Z,2.60
2023-02-17T14:04:28.490Z,2.00
2023-02-17T14:06:58.557Z,1.53
2023-02-17T14:09:31.789Z,1.57
2023-02-17T14:12:01.421Z,1.70
2023-02-17T14:14:39.146Z,1.90
2023-02-17T14:17:13.302Z,1.53
2023-02-17T14:19:46.223Z,1.37
2023-02-17T14:22:31.880Z,2.70
2023-02-17T14:25:01.069Z,1.30
2023-02-17T14:27:28.196Z,3.03
2023-02-17T14:29:54.844Z,1.70
2023-02-17T14:32:30.572Z,4.40
2023-02-17T14:35:07.647Z,3.03
2023-02-17T14:37:36.825Z,5.33
2023-02-17T14:40:15.141Z,4.20
2023-02-17T14:42:41.969Z,2.20
2023-02-17T14:45:08.714Z,3.80
2023-02-17T14:47:35.376Z,2.17
2023-02-17T14:50:02.106Z,2.23
2023-02-17T14:52:29.001Z,1.80
2023-02-17T14:54:55.647Z,2.20
2023-02-17T14:57:27.229Z,1.50
2023-02-17T14:59:57.797Z,1.80
2023-02-17T15:02:24.591Z,1.93
2023-02-17T15:04:51.321Z,1.73
2023-02-17T15:07:19.485Z,1.80
2023-02-17T15:09:48.135Z,2.67
2023-02-17T15:12:18.117Z,2.33
2023-02-17T15:14:46.945Z,2.27
2023-02-17T15:17:14.696Z,2.30
2023-02-17T15:19:44.024Z,2.90
2023-02-17T15:22:14.700Z,2.03
2023-02-17T15:24:41.661Z,1.70
2023-02-17T15:27:14.123Z,5.77
2023-02-17T15:29:41.036Z,2.10
2023-02-17T15:32:16.578Z,2.17
2023-02-17T15:34:43.493Z,3.63
2023-02-17T15:37:11.153Z,2.10
2023-02-17T15:39:38.138Z,2.03
2023-02-17T15:42:13.601Z,2.67
2023-02-17T15:44:45.389Z,3.57
2023-02-17T15:47:18.382Z,2.33
2023-02-17T15:49:45.734Z,1.77
2023-02-17T15:52:13.782Z,2.10
2023-02-17T15:54:42.587Z,1.83
2023-02-17T15:57:19.777Z,2.00
2023-02-17T15:59:46.808Z,1.83
2023-02-17T16:02:21.170Z,2.13
2023-02-17T16:04:48.357Z,5.60
2023-02-17T16:07:15.303Z,1.60
2023-02-17T16:09:42.106Z,5.07
2023-02-17T16:12:17.421Z,3.60
2023-02-17T16:14:44.824Z,2.20
2023-02-17T16:17:16.408Z,2.87
2023-02-17T16:19:43.364Z,1.87
2023-02-17T16:22:10.446Z,14.70
2023-02-17T16:24:37.665Z,20.60
2023-02-17T16:27:08.252Z,16.60
2023-02-17T16:29:35.448Z,26.13
2023-02-17T16:32:02.469Z,9.60
2023-02-17T16:34:32.318Z,4.80
2023-02-17T16:37:02.200Z,6.20
2023-02-17T16:39:29.762Z,4.00
2023-02-17T16:41:56.862Z,4.50
2023-02-17T16:44:24.044Z,3.67
2023-02-17T16:46:53.364Z,4.10
2023-02-17T16:49:31.916Z,3.97
2023-02-17T16:52:08.091Z,2.30
2023-02-17T16:54:35.832Z,4.73
2023-02-17T16:57:02.747Z,3.53
2023-02-17T16:59:29.867Z,2.83
2023-02-17T17:01:56.750Z,2.87
2023-02-17T17:04:24.484Z,3.53
2023-02-17T17:06:52.279Z,2.73
2023-02-17T17:09:24.110Z,2.80
2023-02-17T17:11:50.945Z,4.43
2023-02-17T17:14:18.935Z,3.03
2023-02-17T17:16:54.817Z,3.23
2023-02-17T17:19:21.581Z,6.83
2023-02-17T17:21:49.299Z,3.10
2023-02-17T17:24:16.084Z,3.20
2023-02-17T17:26:45.596Z,3.73
2023-02-17T17:29:14.404Z,3.30
2023-02-17T17:31:41.293Z,3.33
2023-02-17T17:34:08.656Z,3.10
2023-02-17T17:36:40.822Z,4.03
2023-02-17T17:39:13.389Z,2.67
2023-02-17T17:41:40.061Z,7.20
2023-02-17T17:44:07.961Z,3.57
2023-02-17T17:46:37.604Z,9.13
2023-02-17T17:49:06.058Z,3.87
2023-02-17T17:51:33.860Z,6.80
2023-02-17T17:54:00.961Z,10.90
2023-02-17T17:56:30.370Z,5.83
2023-02-17T17:58:59.544Z,9.97
2023-02-17T18:01:26.451Z,7.77
2023-02-17T18:03:53.778Z,6.93
2023-02-17T18:06:28.379Z,6.90
2023-02-17T18:08:59.377Z,4.73
2023-02-17T18:11:26.442Z,4.37
2023-02-17T18:13:56.545Z,4.70
2023-02-17T18:16:25.316Z,5.33
2023-02-17T18:18:52.428Z,4.30
2023-02-17T18:21:19.526Z,5.07
2023-02-17T18:23:46.278Z,4.80
2023-02-17T18:26:13.187Z,6.80
2023-02-17T18:28:40.489Z,5.70
2023-02-17T18:31:08.439Z,15.43
2023-02-17T18:33:35.589Z,3.70
2023-02-17T18:36:14.794Z,4.53
2023-02-17T18:38:42.083Z,3.80
2023-02-17T18:41:16.108Z,4.30
2023-02-17T18:43:42.797Z,4.03
2023-02-17T18:46:10.111Z,6.83
2023-02-17T18:48:37.099Z,4.67
2023-02-17T18:51:12.941Z,3.93
2023-02-17T18:53:40.456Z,4.10
2023-02-17T18:56:12.381Z,3.50
2023-02-17T18:58:39.831Z,3.80
2023-02-17T19:01:06.770Z,4.60
2023-02-17T19:03:33.613Z,4.40
2023-02-17T19:06:09.451Z,4.47
2023-02-17T19:08:36.540Z,3.73
2023-02-17T19:11:03.259Z,4.80
2023-02-17T19:13:30.197Z,4.57
2023-02-17T19:16:24.574Z,4.83
2023-02-17T19:18:52.160Z,5.07
2023-02-17T19:21:19.151Z,4.80
2023-02-17T19:23:45.871Z,5.47
2023-02-17T19:26:14.468Z,8.47
2023-02-17T19:28:41.896Z,5.70
2023-02-17T19:31:10.952Z,4.50
2023-02-17T19:33:38.173Z,4.93
2023-02-17T19:36:10.232Z,4.90
2023-02-17T19:38:37.166Z,5.10
2023-02-17T19:41:06.722Z,4.30
2023-02-17T19:43:33.448Z,5.93
2023-02-17T19:46:00.316Z,3.20
2023-02-17T19:48:27.213Z,5.13
2023-02-17T19:51:05.299Z,3.53
2023-02-17T19:53:33.352Z,3.10
2023-02-17T19:56:10.467Z,2.90
2023-02-17T19:58:38.910Z,3.40
2023-02-17T20:01:14.022Z,3.63
2023-02-17T20:03:41.441Z,3.70
2023-02-17T20:06:16.567Z,3.03
2023-02-17T20:08:45.111Z,2.90
2023-02-17T20:11:12.072Z,2.90
2023-02-17T20:13:45.624Z,2.77
2023-02-17T20:16:14.896Z,3.87
2023-02-17T20:18:44.994Z,3.40
2023-02-17T20:21:14.172Z,3.37
2023-02-17T20:23:40.886Z,4.13
2023-02-17T20:26:13.590Z,4.80
2023-02-17T20:28:40.615Z,4.60
2023-02-17T20:31:09.083Z,3.43
2023-02-17T20:33:36.117Z,3.70
2023-02-17T20:36:04.079Z,4.90
2023-02-17T20:38:30.902Z,3.20
2023-02-17T20:40:58.744Z,4.23
2023-02-17T20:43:25.854Z,5.40
2023-02-17T20:45:53.586Z,4.80
2023-02-17T20:48:21.717Z,3.73
2023-02-17T20:50:48.953Z,5.83
2023-02-17T20:53:15.644Z,4.27
2023-02-17T20:55:42.281Z,4.30
2023-02-17T20:58:11.044Z,3.27
2023-02-17T21:00:38.030Z,4.07
2023-02-17T21:03:05.025Z,3.50
2023-02-17T21:05:32.015Z,3.47
2023-02-17T21:07:59.125Z,4.70
2023-02-17T21:10:28.667Z,4.53
2023-02-17T21:12:55.455Z,3.57
2023-02-17T21:15:22.509Z,3.57
2023-02-17T21:17:49.213Z,4.80
2023-02-17T21:20:20.042Z,4.63
2023-02-17T21:22:46.834Z,5.80
2023-02-17T21:25:13.951Z,3.80
2023-02-17T21:27:40.780Z,4.20
2023-02-17T21:30:09.191Z,3.80
2023-02-17T21:32:36.349Z,4.63
2023-02-17T21:35:03.013Z,5.37
2023-02-17T21:37:29.709Z,5.13
2023-02-17T21:39:56.545Z,5.00
2023-02-17T21:42:43.612Z,4.47
2023-02-17T21:45:11.522Z,6.40
2023-02-17T21:47:38.213Z,4.27
2023-02-17T21:50:05.392Z,4.37
2023-02-17T21:52:32.160Z,4.27
2023-02-17T21:55:00.933Z,5.27
2023-02-17T21:57:27.637Z,8.00
2023-02-17T21:59:54.345Z,4.93
2023-02-17T22:02:21.005Z,6.50
2023-02-17T22:04:49.033Z,10.00
2023-02-17T22:07:15.849Z,6.50
2023-02-17T22:09:42.501Z,4.70
2023-02-17T22:12:09.151Z,4.27
2023-02-17T22:14:35.856Z,6.77
2023-02-17T22:17:02.602Z,5.27
2023-02-17T22:19:31.492Z,5.40
2023-02-17T22:21:58.579Z,5.80
2023-02-17T22:24:27.108Z,6.00
2023-02-17T22:26:54.428Z,6.10
2023-02-17T22:29:21.172Z,6.57
2023-02-17T22:31:50.638Z,5.97
2023-02-17T22:34:17.613Z,5.30
2023-02-17T22:36:44.528Z,7.60
2023-02-17T22:39:11.510Z,8.43
2023-02-17T22:41:39.353Z,6.53
2023-02-17T22:44:07.058Z,6.20
2023-02-17T22:46:34.401Z,5.70
2023-02-17T22:49:01.619Z,5.60
2023-02-17T22:51:32.004Z,6.00
2023-02-17T22:54:00.329Z,5.97
2023-02-17T22:56:27.308Z,5.87
2023-02-17T22:58:57.792Z,5.40
2023-02-17T23:01:25.104Z,5.67
2023-02-17T23:03:54.329Z,6.10
2023-02-17T23:06:27.855Z,6.43
2023-02-17T23:08:55.396Z,8.60
2023-02-17T23:11:44.504Z,5.63
2023-02-17T23:14:12.849Z,5.97
2023-02-17T23:16:40.589Z,6.10
2023-02-17T23:19:12.973Z,7.10
2023-02-17T23:21:46.983Z,7.33
2023-02-17T23:24:15.931Z,7.13
2023-02-17T23:26:42.701Z,10.67
2023-02-17T23:29:09.909Z,10.83
2023-02-17T23:31:38.504Z,7.90
2023-02-17T23:34:06.185Z,6.37
2023-02-17T23:36:33.290Z,7.77
2023-02-17T23:39:00.480Z,8.17
2023-02-17T23:41:27.820Z,6.87
2023-02-17T23:43:54.563Z,7.37
2023-02-17T23:46:21.500Z,6.83
2023-02-17T23:48:48.263Z,6.70
2023-02-17T23:51:17.240Z,6.70
2023-02-17T23:53:44.642Z,6.47
2023-02-17T23:56:19.757Z,6.90
2023-02-17T23:58:46.692Z,6.17
